Time;durP1;ratioP1;P1;durP2;ratioP2;P2;SDS_P1;SDS_P2;PMS_P1;PMS_P2;Temp;Humidity;BMP_temperature;BMP_pressure;BME280_temperature;BME280_humidity;BME280_pressure;Samples;Min_cycle;Max_cycle;Signal;HPM_P1;HPM_P2
2023/10/15 00:00:25;;;;;;;28.10;20.70;;;;;;;;;;5053115;28;20275;-85
2023/10/15 00:02:51;;;;;;;36.92;21.90;;;;;;;;;;5050477;28;20036;-86
2023/10/15 00:05:20;;;;;;;27.35;20.27;;;;;;;;;;5040453;28;20400;-85
2023/10/15 00:07:47;;;;;;;30.35;22.55;;;;;;;;;;5046933;28;20074;-85
2023/10/15 00:10:14;;;;;;;31.75;22.42;;;;;;;;;;5054787;28;20029;-85
2023/10/15 00:12:41;;;;;;;31.60;22.15;;;;;;;;;;5068769;28;20056;-85
2023/10/15 00:15:13;;;;;;;89.35;25.48;;;;;;;;;;5073165;28;20059;-85
2023/10/15 00:17:40;;;;;;;51.33;23.05;;;;;;;;;;5069501;28;20040;-86
2023/10/15 00:20:10;;;;;;;33.40;22.75;;;;;;;;;;5054456;28;20024;-86
2023/10/15 00:22:38;;;;;;;33.22;24.10;;;;;;;;;;5056684;28;20060;-86
2023/10/15 00:25:09;;;;;;;29.35;23.92;;;;;;;;;;5052740;28;20545;-85
2023/10/15 00:27:39;;;;;;;38.72;25.30;;;;;;;;;;5068150;28;20073;-86
2023/10/15 00:30:12;;;;;;;32.13;23.92;;;;;;;;;;5053333;28;20025;-85
2023/10/15 00:32:45;;;;;;;38.38;24.17;;;;;;;;;;5037026;28;20120;-85
2023/10/15 00:35:19;;;;;;;32.03;22.00;;;;;;;;;;5060917;28;20116;-86
2023/10/15 00:37:54;;;;;;;29.85;23.00;;;;;;;;;;5055018;28;20067;-86
2023/10/15 00:40:22;;;;;;;30.33;23.10;;;;;;;;;;5031754;28;20175;-86
2023/10/15 00:42:48;;;;;;;35.35;23.10;;;;;;;;;;5031785;28;20029;-85
2023/10/15 00:45:15;;;;;;;33.08;23.58;;;;;;;;;;5031090;28;20036;-85
2023/10/15 00:47:45;;;;;;;31.42;24.42;;;;;;;;;;5032726;28;20029;-85
2023/10/15 00:50:14;;;;;;;29.42;23.55;;;;;;;;;;5033401;28;20025;-85
2023/10/15 00:52:43;;;;;;;27.70;24.10;;;;;;;;;;5052701;28;20029;-86
2023/10/15 00:55:16;;;;;;;32.17;24.48;;;;;;;;;;5053737;28;20408;-86
2023/10/15 00:57:46;;;;;;;32.92;23.67;;;;;;;;;;5069784;28;20040;-86
2023/10/15 01:01:00;;;;;;;35.47;24.67;;;;;;;;;;5069897;28;20388;-86
2023/10/15 01:03:07;;;;;;;34.38;26.38;;;;;;;;;;5054204;28;20164;-86
2023/10/15 01:05:44;;;;;;;34.50;24.52;;;;;;;;;;5057610;28;20403;-86
2023/10/15 01:08:11;;;;;;;33.67;23.90;;;;;;;;;;5058903;28;20052;-86
2023/10/15 01:10:37;;;;;;;29.80;23.83;;;;;;;;;;5062978;28;20070;-85
2023/10/15 01:13:17;;;;;;;33.67;25.53;;;;;;;;;;5061377;28;20024;-86
2023/10/15 01:15:48;;;;;;;38.88;26.63;;;;;;;;;;5065522;28;20029;-85
2023/10/15 01:18:14;;;;;;;34.90;24.23;;;;;;;;;;5063376;28;20036;-85
2023/10/15 01:20:43;;;;;;;28.42;24.90;;;;;;;;;;5071098;28;20020;-85
2023/10/15 01:23:31;;;;;;;36.78;26.42;;;;;;;;;;5069371;28;20437;-85
2023/10/15 01:26:09;;;;;;;45.58;27.05;;;;;;;;;;5066630;28;20021;-85
2023/10/15 01:28:38;;;;;;;35.83;26.23;;;;;;;;;;5039943;28;20108;-85
2023/10/15 01:31:06;;;;;;;33.40;24.42;;;;;;;;;;5053602;28;20166;-85
2023/10/15 01:33:45;;;;;;;35.20;26.33;;;;;;;;;;5053005;28;20021;-85
2023/10/15 01:36:30;;;;;;;38.13;26.23;;;;;;;;;;5053664;28;20446;-86
2023/10/15 01:38:58;;;;;;;34.90;26.38;;;;;;;;;;5046033;28;20050;-85
2023/10/15 01:41:28;;;;;;;37.15;25.50;;;;;;;;;;5038297;28;20025;-86
2023/10/15 01:43:58;;;;;;;35.63;26.42;;;;;;;;;;5069980;28;20032;-86
2023/10/15 01:49:09;;;;;;;32.30;26.27;;;;;;;;;;5052953;28;20064;-85
2023/10/15 01:51:40;;;;;;;38.67;27.73;;;;;;;;;;5050798;28;20025;-85
2023/10/15 01:54:10;;;;;;;36.08;26.50;;;;;;;;;;5050850;28;20037;-86
2023/10/15 01:56:40;;;;;;;35.42;26.48;;;;;;;;;;5035447;28;20060;-85
2023/10/15 01:59:10;;;;;;;37.60;28.50;;;;;;;;;;5042517;28;20055;-85
2023/10/15 02:01:49;;;;;;;39.30;29.40;;;;;;;;;;5046401;28;20032;-85
2023/10/15 02:04:26;;;;;;;43.72;28.90;;;;;;;;;;5050104;28;20037;-85
2023/10/15 02:06:52;;;;;;;38.80;29.90;;;;;;;;;;5051636;28;20384;-85
2023/10/15 02:09:21;;;;;;;39.23;28.00;;;;;;;;;;5034322;28;20036;-85
2023/10/15 02:11:48;;;;;;;32.50;25.92;;;;;;;;;;5050480;28;20371;-85
2023/10/15 02:14:21;;;;;;;34.53;27.70;;;;;;;;;;5034115;28;20033;-86
2023/10/15 02:16:50;;;;;;;35.95;28.58;;;;;;;;;;5059923;28;20036;-86
2023/10/15 02:19:40;;;;;;;37.65;28.13;;;;;;;;;;5049635;28;20040;-86
2023/10/15 02:22:07;;;;;;;40.83;29.17;;;;;;;;;;5053181;28;20025;-85
2023/10/15 02:24:34;;;;;;;42.35;28.42;;;;;;;;;;5053501;28;20036;-85
2023/10/15 02:27:06;;;;;;;40.05;28.73;;;;;;;;;;5055639;28;20029;-85
2023/10/15 02:32:08;;;;;;;42.80;28.60;;;;;;;;;;5074765;28;20028;-85
2023/10/15 02:34:40;;;;;;;41.58;29.00;;;;;;;;;;5048749;28;20032;-85
2023/10/15 02:37:10;;;;;;;45.03;29.52;;;;;;;;;;5034191;28;20456;-85
2023/10/15 02:39:44;;;;;;;38.60;29.10;;;;;;;;;;5029909;28;20040;-85
2023/10/15 02:42:11;;;;;;;35.00;27.50;;;;;;;;;;5037332;28;20132;-86
2023/10/15 02:44:38;;;;;;;35.80;28.88;;;;;;;;;;5053564;28;20033;-86
2023/10/15 02:47:10;;;;;;;38.53;30.27;;;;;;;;;;5061779;28;20059;-86
2023/10/15 02:52:23;;;;;;;35.80;29.70;;;;;;;;;;5053685;28;20642;-85
2023/10/15 02:54:50;;;;;;;40.72;28.42;;;;;;;;;;5044599;28;20453;-85
2023/10/15 02:57:17;;;;;;;37.30;28.25;;;;;;;;;;5044520;28;20115;-85
2023/10/15 02:59:52;;;;;;;44.13;30.08;;;;;;;;;;5044681;28;20060;-85
2023/10/15 03:02:25;;;;;;;39.83;29.75;;;;;;;;;;5064569;28;20514;-86
2023/10/15 03:04:55;;;;;;;38.40;30.23;;;;;;;;;;5072513;28;20131;-85
2023/10/15 03:07:30;;;;;;;38.90;30.25;;;;;;;;;;5070317;28;20021;-85
2023/10/15 03:09:58;;;;;;;40.10;30.02;;;;;;;;;;5038975;28;20028;-85
2023/10/15 03:12:24;;;;;;;38.13;31.00;;;;;;;;;;5043387;28;20028;-85
2023/10/15 03:14:54;;;;;;;37.10;30.33;;;;;;;;;;5043018;28;20553;-85
2023/10/15 03:17:24;;;;;;;47.60;33.60;;;;;;;;;;5067696;28;20028;-85
2023/10/15 03:20:10;;;;;;;35.40;29.45;;;;;;;;;;5065897;28;20574;-85
2023/10/15 03:22:38;;;;;;;46.17;31.35;;;;;;;;;;5053938;28;20029;-85
2023/10/15 03:25:13;;;;;;;40.05;31.75;;;;;;;;;;5036440;28;20387;-84
2023/10/15 03:27:46;;;;;;;45.75;32.22;;;;;;;;;;5064466;28;20033;-84
2023/10/15 03:30:13;;;;;;;43.83;31.55;;;;;;;;;;5041386;28;20035;-84
2023/10/15 03:32:45;;;;;;;;;;;;;;;;;;5062240;28;20047;-84
2023/10/15 03:35:27;;;;;;;44.65;32.05;;;;;;;;;;5062084;28;19908;-84
2023/10/15 03:38:00;;;;;;;42.03;32.17;;;;;;;;;;5063605;28;20024;-84
2023/10/15 03:40:39;;;;;;;40.50;31.63;;;;;;;;;;5052605;28;20032;-84
2023/10/15 03:43:15;;;;;;;42.92;32.00;;;;;;;;;;5069005;28;20047;-84
2023/10/15 03:45:51;;;;;;;40.63;31.38;;;;;;;;;;5054670;28;20029;-83
2023/10/15 03:48:29;;;;;;;43.65;32.63;;;;;;;;;;5052322;28;20029;-83
2023/10/15 03:50:55;;;;;;;42.75;32.90;;;;;;;;;;5051999;28;20483;-83
2023/10/15 03:53:28;;;;;;;41.47;31.08;;;;;;;;;;5067281;28;20024;-84
2023/10/15 03:56:01;;;;;;;42.28;32.15;;;;;;;;;;5072340;28;20032;-84
2023/10/15 03:58:28;;;;;;;38.92;31.30;;;;;;;;;;5062833;28;20025;-84
2023/10/15 04:01:22;;;;;;;44.40;33.15;;;;;;;;;;5056796;28;20387;-84
2023/10/15 04:03:47;;;;;;;45.10;31.40;;;;;;;;;;5051791;28;20037;-84
2023/10/15 04:06:14;;;;;;;41.67;31.05;;;;;;;;;;5070629;28;20033;-84
2023/10/15 04:08:59;;;;;;;;;;;;;;;;;;5062332;28;20044;-84
2023/10/15 04:11:29;;;;;;;39.22;31.65;;;;;;;;;;5053561;28;20014;-84
2023/10/15 04:13:57;;;;;;;51.15;33.58;;;;;;;;;;5058812;28;20036;-84
2023/10/15 04:16:23;;;;;;;47.92;34.75;;;;;;;;;;5065043;28;20037;-84
2023/10/15 04:18:49;;;;;;;45.10;32.43;;;;;;;;;;5061902;28;20040;-84
2023/10/15 04:21:20;;;;;;;50.70;34.70;;;;;;;;;;5052646;28;20350;-84
2023/10/15 04:23:52;;;;;;;43.17;33.80;;;;;;;;;;5036306;28;20025;-83
2023/10/15 04:26:22;;;;;;;51.33;33.53;;;;;;;;;;5047679;28;20028;-84
2023/10/15 04:28:53;;;;;;;46.97;34.33;;;;;;;;;;5037513;28;20075;-83
2023/10/15 04:31:23;;;;;;;52.20;35.53;;;;;;;;;;5062142;28;20035;-84
2023/10/15 04:33:52;;;;;;;48.53;34.80;;;;;;;;;;5040903;28;20054;-84
2023/10/15 04:36:19;;;;;;;45.30;34.03;;;;;;;;;;5049156;28;20036;-83
2023/10/15 04:38:45;;;;;;;44.50;35.63;;;;;;;;;;5035332;28;20075;-84
2023/10/15 04:41:13;;;;;;;55.90;37.78;;;;;;;;;;5052386;28;20044;-84
2023/10/15 04:43:45;;;;;;;46.00;34.67;;;;;;;;;;5067051;28;20055;-83
2023/10/15 04:46:18;;;;;;;45.33;34.08;;;;;;;;;;5045963;28;20040;-84
2023/10/15 04:48:50;;;;;;;48.50;35.88;;;;;;;;;;5049642;28;20072;-84
2023/10/15 04:51:16;;;;;;;47.22;35.58;;;;;;;;;;5022814;28;20059;-83
2023/10/15 04:53:50;;;;;;;46.42;32.80;;;;;;;;;;5038287;28;20139;-84
2023/10/15 04:56:16;;;;;;;43.67;33.28;;;;;;;;;;5052752;28;20057;-84
2023/10/15 04:58:42;;;;;;;43.47;33.10;;;;;;;;;;5057240;28;20032;-84
2023/10/15 05:01:09;;;;;;;53.30;32.27;;;;;;;;;;5044545;28;20557;-84
2023/10/15 05:03:38;;;;;;;44.88;34.17;;;;;;;;;;5045929;28;20044;-83
2023/10/15 05:06:10;;;;;;;52.67;35.55;;;;;;;;;;5034786;28;20033;-83
2023/10/15 05:08:47;;;;;;;43.92;32.60;;;;;;;;;;5039596;28;20560;-84
2023/10/15 05:11:13;;;;;;;43.22;33.10;;;;;;;;;;5044306;28;20484;-84
2023/10/15 05:13:42;;;;;;;49.42;34.20;;;;;;;;;;5059376;28;20025;-83
2023/10/15 05:16:08;;;;;;;48.70;33.75;;;;;;;;;;5043954;28;20495;-83
2023/10/15 05:18:35;;;;;;;44.20;34.05;;;;;;;;;;5069520;28;20035;-83
2023/10/15 05:21:01;;;;;;;45.83;33.50;;;;;;;;;;5073471;28;20402;-84
2023/10/15 05:23:28;;;;;;;44.67;31.08;;;;;;;;;;5073106;28;20033;-84
2023/10/15 05:25:58;;;;;;;45.35;31.95;;;;;;;;;;5057025;28;20028;-83
2023/10/15 05:28:24;;;;;;;40.90;31.25;;;;;;;;;;5065499;28;20017;-84
2023/10/15 05:30:50;;;;;;;41.07;30.37;;;;;;;;;;5059068;28;20028;-84
2023/10/15 05:33:16;;;;;;;42.35;31.10;;;;;;;;;;5058357;28;20439;-84
2023/10/15 05:35:49;;;;;;;46.88;30.00;;;;;;;;;;5057465;28;20029;-85
2023/10/15 05:38:16;;;;;;;42.92;30.50;;;;;;;;;;5067543;28;20024;-84
2023/10/15 05:40:44;;;;;;;44.00;29.05;;;;;;;;;;5061901;28;20063;-85
2023/10/15 05:43:11;;;;;;;41.28;29.90;;;;;;;;;;5056036;28;20017;-85
2023/10/15 05:45:37;;;;;;;40.13;30.83;;;;;;;;;;5035344;28;20431;-86
2023/10/15 05:48:03;;;;;;;44.10;31.77;;;;;;;;;;5062034;28;20029;-86
2023/10/15 05:50:30;;;;;;;40.72;29.77;;;;;;;;;;5051344;28;20060;-85
2023/10/15 05:52:56;;;;;;;41.90;29.25;;;;;;;;;;5054697;28;20109;-85
2023/10/15 05:55:22;;;;;;;42.90;29.73;;;;;;;;;;5056015;28;20029;-85
2023/10/15 05:57:49;;;;;;;45.42;31.83;;;;;;;;;;5040880;28;20446;-84
2023/10/15 06:00:18;;;;;;;39.67;28.53;;;;;;;;;;5059824;28;20033;-85
2023/10/15 06:02:45;;;;;;;41.35;28.27;;;;;;;;;;5059390;28;20507;-83
2023/10/15 06:05:13;;;;;;;55.38;28.88;;;;;;;;;;5068124;28;20052;-83
2023/10/15 06:07:43;;;;;;;35.78;28.48;;;;;;;;;;5057809;28;20029;-82
2023/10/15 06:10:12;;;;;;;33.53;27.02;;;;;;;;;;5059279;28;20086;-84
2023/10/15 06:12:42;;;;;;;39.38;28.10;;;;;;;;;;5080548;28;20486;-83
2023/10/15 06:15:09;;;;;;;39.03;27.42;;;;;;;;;;5062806;28;20036;-83
2023/10/15 06:17:36;;;;;;;41.33;28.13;;;;;;;;;;5045923;28;20046;-83
2023/10/15 06:20:35;;;;;;;41.33;28.73;;;;;;;;;;5045098;28;20594;-83
2023/10/15 06:23:00;;;;;;;37.30;27.25;;;;;;;;;;5061590;28;20037;-83
2023/10/15 06:25:26;;;;;;;32.90;27.00;;;;;;;;;;5048872;28;20036;-84
2023/10/15 06:27:53;;;;;;;37.90;26.43;;;;;;;;;;5042074;28;20105;-83
2023/10/15 06:30:19;;;;;;;38.87;26.70;;;;;;;;;;5044162;28;20088;-83
2023/10/15 06:32:49;;;;;;;45.40;25.25;;;;;;;;;;5061732;28;20017;-83
2023/10/15 06:35:19;;;;;;;42.50;24.88;;;;;;;;;;5061322;28;20029;-84
2023/10/15 06:37:49;;;;;;;31.63;24.85;;;;;;;;;;5061096;28;20028;-84
2023/10/15 06:40:16;;;;;;;38.42;25.45;;;;;;;;;;5063578;28;20480;-84
2023/10/15 06:42:46;;;;;;;33.05;23.90;;;;;;;;;;5044916;28;20033;-82
2023/10/15 06:45:18;;;;;;;35.08;25.10;;;;;;;;;;5062714;28;20059;-83
2023/10/15 06:47:46;;;;;;;32.35;25.48;;;;;;;;;;5061976;28;20404;-82
2023/10/15 06:50:12;;;;;;;28.23;23.88;;;;;;;;;;5061781;28;20119;-82
2023/10/15 06:52:39;;;;;;;31.70;22.15;;;;;;;;;;5060937;28;20074;-83
2023/10/15 06:55:19;;;;;;;32.60;23.80;;;;;;;;;;5042254;28;20036;-85
2023/10/15 06:57:46;;;;;;;31.70;23.55;;;;;;;;;;5062468;28;20040;-83
2023/10/15 07:00:21;;;;;;;36.75;23.52;;;;;;;;;;5042895;28;20269;-83
2023/10/15 07:02:48;;;;;;;34.47;23.48;;;;;;;;;;5059665;28;20118;-83
2023/10/15 07:05:16;;;;;;;29.98;22.55;;;;;;;;;;5044681;28;20032;-83
2023/10/15 07:07:45;;;;;;;35.53;24.08;;;;;;;;;;5060494;28;20033;-83
2023/10/15 07:10:15;;;;;;;32.90;24.48;;;;;;;;;;5061029;28;20057;-83
2023/10/15 07:12:42;;;;;;;30.88;23.42;;;;;;;;;;5058200;28;20060;-84
2023/10/15 07:15:09;;;;;;;32.25;23.35;;;;;;;;;;5058910;28;20128;-84
2023/10/15 07:17:38;;;;;;;33.35;21.40;;;;;;;;;;5059990;28;20021;-85
2023/10/15 07:20:14;;;;;;;38.65;24.30;;;;;;;;;;5059380;28;20036;-84
2023/10/15 07:22:46;;;;;;;43.08;28.20;;;;;;;;;;5059381;28;20178;-82
2023/10/15 07:25:13;;;;;;;32.13;23.33;;;;;;;;;;5060365;28;20033;-84
2023/10/15 07:27:44;;;;;;;33.58;22.98;;;;;;;;;;5073980;28;20037;-82
2023/10/15 07:30:13;;;;;;;33.65;23.88;;;;;;;;;;5057869;28;20028;-84
2023/10/15 07:32:40;;;;;;;31.15;22.73;;;;;;;;;;5056356;28;20055;-83
2023/10/15 07:35:07;;;;;;;;;;;;;;;;;;5057433;28;20036;-84
2023/10/15 07:37:37;;;;;;;32.88;23.90;;;;;;;;;;5059010;28;19966;-83
2023/10/15 07:40:06;;;;;;;32.55;21.58;;;;;;;;;;5058214;28;20024;-82
2023/10/15 07:42:35;;;;;;;27.55;22.35;;;;;;;;;;5064752;28;20035;-81
2023/10/15 07:45:02;;;;;;;28.75;22.75;;;;;;;;;;5055011;28;20028;-84
2023/10/15 07:47:28;;;;;;;27.37;22.53;;;;;;;;;;5039251;28;20029;-85
2023/10/15 07:49:54;;;;;;;30.73;23.77;;;;;;;;;;5041101;28;20270;-85
2023/10/15 07:52:20;;;;;;;34.00;22.67;;;;;;;;;;5049956;28;20021;-85
2023/10/15 07:54:47;;;;;;;33.07;23.10;;;;;;;;;;5053518;28;20396;-85
2023/10/15 07:57:14;;;;;;;37.78;23.58;;;;;;;;;;5052326;28;20488;-85
2023/10/15 07:59:40;;;;;;;;;;;;;;;;;;5054012;28;20017;-85
2023/10/15 08:02:07;;;;;;;27.67;22.40;;;;;;;;;;5054679;28;20422;-85
2023/10/15 08:04:34;;;;;;;;;;;;;;;;;;5055792;28;20399;-84
2023/10/15 08:07:00;;;;;;;39.97;23.63;;;;;;;;;;5056580;28;19908;-84
2023/10/15 08:09:29;;;;;;;27.80;21.15;;;;;;;;;;5055633;28;20033;-84
2023/10/15 08:11:56;;;;;;;31.58;22.85;;;;;;;;;;5035749;28;20030;-85
2023/10/15 08:14:22;;;;;;;30.85;22.92;;;;;;;;;;5018926;28;20029;-84
2023/10/15 08:16:48;;;;;;;27.73;21.02;;;;;;;;;;5035954;28;20037;-84
2023/10/15 08:19:14;;;;;;;26.23;21.47;;;;;;;;;;5034299;28;20036;-83
2023/10/15 08:21:40;;;;;;;30.52;22.33;;;;;;;;;;5034697;28;20040;-85
2023/10/15 08:24:07;;;;;;;27.77;20.80;;;;;;;;;;5062477;28;20025;-84
2023/10/15 08:26:33;;;;;;;30.00;21.25;;;;;;;;;;5076382;28;20279;-84
2023/10/15 08:28:59;;;;;;;28.50;21.03;;;;;;;;;;5075808;28;20078;-84
2023/10/15 08:31:25;;;;;;;29.65;22.17;;;;;;;;;;5075675;28;20021;-84
2023/10/15 08:33:51;;;;;;;25.40;20.13;;;;;;;;;;5074122;28;20035;-84
2023/10/15 08:36:19;;;;;;;28.67;20.60;;;;;;;;;;5056249;28;20377;-84
2023/10/15 08:38:45;;;;;;;34.17;21.95;;;;;;;;;;5056143;28;20210;-84
2023/10/15 08:41:13;;;;;;;27.17;21.42;;;;;;;;;;5074109;28;20060;-84
2023/10/15 08:43:40;;;;;;;28.67;19.92;;;;;;;;;;5074291;28;20029;-85
2023/10/15 08:46:09;;;;;;;32.30;21.45;;;;;;;;;;5073985;28;20031;-84
2023/10/15 08:48:38;;;;;;;37.53;21.88;;;;;;;;;;5073950;28;20036;-85
2023/10/15 08:51:04;;;;;;;36.85;21.33;;;;;;;;;;5073042;28;20025;-84
2023/10/15 08:53:31;;;;;;;30.30;21.80;;;;;;;;;;5072824;28;20020;-85
2023/10/15 08:55:59;;;;;;;33.78;20.92;;;;;;;;;;5056336;28;20095;-85
2023/10/15 08:58:25;;;;;;;28.92;21.42;;;;;;;;;;5074241;28;20033;-84
2023/10/15 09:00:53;;;;;;;38.95;22.23;;;;;;;;;;5072869;28;20021;-85
2023/10/15 09:03:19;;;;;;;35.92;23.50;;;;;;;;;;5055662;28;20028;-84
2023/10/15 09:05:45;;;;;;;31.02;22.33;;;;;;;;;;5075428;28;20028;-84
2023/10/15 09:08:13;;;;;;;33.40;22.90;;;;;;;;;;5072375;28;20052;-83
2023/10/15 09:10:41;;;;;;;30.88;23.00;;;;;;;;;;5073168;28;20068;-84
2023/10/15 09:13:14;;;;;;;33.58;22.52;;;;;;;;;;5059035;28;20036;-83
2023/10/15 09:15:43;;;;;;;35.05;22.80;;;;;;;;;;5076024;28;20056;-83
2023/10/15 09:18:11;;;;;;;34.28;22.77;;;;;;;;;;5076487;28;20398;-84
2023/10/15 09:20:42;;;;;;;32.47;23.77;;;;;;;;;;5057666;28;20033;-84
2023/10/15 09:23:09;;;;;;;30.80;23.80;;;;;;;;;;5072342;28;20036;-84
2023/10/15 09:25:35;;;;;;;;;;;;;;;;;;5056845;28;20025;-84
2023/10/15 09:28:01;;;;;;;32.80;23.50;;;;;;;;;;5074257;28;19912;-85
2023/10/15 09:30:30;;;;;;;36.70;23.97;;;;;;;;;;5072319;28;20025;-85
2023/10/15 09:32:57;;;;;;;30.35;23.75;;;;;;;;;;5073108;28;20266;-85
2023/10/15 09:35:23;;;;;;;36.30;24.50;;;;;;;;;;5072184;28;20025;-84
2023/10/15 09:37:50;;;;;;;33.88;25.20;;;;;;;;;;5074213;28;20036;-83
2023/10/15 09:40:20;;;;;;;32.90;24.15;;;;;;;;;;5072835;28;20024;-85
2023/10/15 09:42:53;;;;;;;44.78;25.08;;;;;;;;;;5055006;28;20028;-84
2023/10/15 09:45:23;;;;;;;37.17;24.58;;;;;;;;;;5070418;28;20025;-85
2023/10/15 09:48:00;;;;;;;40.55;24.90;;;;;;;;;;5069696;28;20104;-85
2023/10/15 09:50:32;;;;;;;34.35;22.65;;;;;;;;;;5071758;28;20052;-84
2023/10/15 09:53:09;;;;;;;30.38;21.90;;;;;;;;;;5075042;28;20033;-86
2023/10/15 09:55:35;;;;;;;30.92;24.92;;;;;;;;;;5074455;28;20032;-86
2023/10/15 09:58:04;;;;;;;40.17;25.27;;;;;;;;;;5074455;28;20040;-86
2023/10/15 10:03:25;;;;;;;34.83;23.15;;;;;;;;;;5070261;28;20422;-85
2023/10/15 10:06:09;;;;;;;36.53;25.55;;;;;;;;;;5073899;28;20403;-86
2023/10/15 10:08:53;;;;;;;36.45;23.92;;;;;;;;;;5072396;28;20071;-86
2023/10/15 10:11:34;;;;;;;33.40;24.52;;;;;;;;;;5073298;28;20027;-86
2023/10/15 10:14:15;;;;;;;33.13;26.77;;;;;;;;;;5072409;28;20478;-86
2023/10/15 10:16:42;;;;;;;38.30;27.48;;;;;;;;;;5073659;28;20414;-86
2023/10/15 10:19:08;;;;;;;39.85;26.25;;;;;;;;;;5070657;28;20040;-86
2023/10/15 10:21:34;;;;;;;43.53;28.70;;;;;;;;;;5070626;28;20021;-86
2023/10/15 10:24:02;;;;;;;39.90;28.17;;;;;;;;;;5075379;28;20025;-86
2023/10/15 10:26:32;;;;;;;35.70;29.25;;;;;;;;;;5075462;28;20043;-85
2023/10/15 10:29:01;;;;;;;36.63;26.83;;;;;;;;;;5056342;28;20176;-86
2023/10/15 10:31:30;;;;;;;37.28;28.50;;;;;;;;;;5075525;28;20115;-85
2023/10/15 10:34:01;;;;;;;36.67;28.10;;;;;;;;;;5058514;28;20025;-86
2023/10/15 10:36:30;;;;;;;39.17;28.42;;;;;;;;;;5078810;28;20499;-85
2023/10/15 10:39:12;;;;;;;40.35;28.88;;;;;;;;;;5076257;28;20093;-86
2023/10/15 10:41:46;;;;;;;43.92;28.63;;;;;;;;;;5057478;28;20466;-87
2023/10/15 10:44:24;;;;;;;44.60;29.90;;;;;;;;;;5067868;28;20275;-86
2023/10/15 10:46:56;;;;;;;39.47;30.27;;;;;;;;;;5058583;28;20032;-86
2023/10/15 10:49:36;;;;;;;41.40;30.60;;;;;;;;;;5072937;28;20060;-87
2023/10/15 10:52:19;;;;;;;34.72;29.35;;;;;;;;;;5063675;28;20025;-86
2023/10/15 10:54:45;;;;;;;39.40;29.60;;;;;;;;;;5052535;28;20058;-86
2023/10/15 10:57:12;;;;;;;36.90;29.17;;;;;;;;;;5060106;28;20029;-87
2023/10/15 10:59:41;;;;;;;33.25;27.45;;;;;;;;;;5067067;28;20123;-87
2023/10/15 11:02:11;;;;;;;36.97;28.23;;;;;;;;;;5060161;28;20032;-87
2023/10/15 11:04:39;;;;;;;36.22;28.73;;;;;;;;;;5067414;28;20036;-87
2023/10/15 11:07:05;;;;;;;37.53;26.83;;;;;;;;;;5068588;28;20484;-87
2023/10/15 11:09:31;;;;;;;36.45;27.20;;;;;;;;;;5054360;28;20562;-86
2023/10/15 11:11:57;;;;;;;30.33;25.35;;;;;;;;;;5052859;28;20029;-87
2023/10/15 11:14:24;;;;;;;31.77;23.75;;;;;;;;;;5068827;28;20035;-86
2023/10/15 11:16:51;;;;;;;31.15;25.50;;;;;;;;;;5059989;28;20090;-87
2023/10/15 11:19:17;;;;;;;;;;;;;;;;;;5054439;28;20483;-87
2023/10/15 11:21:44;;;;;;;27.08;22.02;;;;;;;;;;5053915;28;19904;-87
2023/10/15 11:24:11;;;;;;;32.08;23.98;;;;;;;;;;5072828;28;20119;-87
2023/10/15 11:26:41;;;;;;;36.25;25.65;;;;;;;;;;5056474;28;20032;-86
2023/10/15 11:29:22;;;;;;;29.20;22.98;;;;;;;;;;5050554;28;20468;-84
2023/10/15 11:31:49;;;;;;;27.25;22.33;;;;;;;;;;5056209;28;20514;-85
2023/10/15 11:34:16;;;;;;;;;;;;;;;;;;5036669;28;20455;-82
2023/10/15 11:36:44;;;;;;;25.30;22.27;;;;;;;;;;5060353;28;19930;-82
2023/10/15 11:41:58;;;;;;;28.92;23.90;;;;;;;;;;5081209;28;20041;-82
2023/10/15 11:44:26;;;;;;;26.45;20.17;;;;;;;;;;5066350;28;20066;-85
2023/10/15 11:46:54;;;;;;;26.88;19.10;;;;;;;;;;5066406;28;20016;-85
2023/10/15 11:49:22;;;;;;;30.75;21.67;;;;;;;;;;5075154;28;20025;-85
2023/10/15 11:51:49;;;;;;;27.48;19.67;;;;;;;;;;5062857;28;20074;-86
2023/10/15 11:54:16;;;;;;;33.33;21.23;;;;;;;;;;5075494;28;20032;-88
2023/10/15 11:56:50;;;;;;;25.83;20.33;;;;;;;;;;5055764;28;20055;-87
2023/10/15 11:59:16;;;;;;;27.45;21.75;;;;;;;;;;5072574;28;20064;-87
2023/10/15 12:01:51;;;;;;;23.42;19.63;;;;;;;;;;5075719;28;20025;-85
2023/10/15 12:04:17;;;;;;;24.33;18.98;;;;;;;;;;5056985;28;20460;-88
2023/10/15 12:06:43;;;;;;;26.92;21.20;;;;;;;;;;5064011;28;20549;-84
2023/10/15 12:09:16;;;;;;;24.50;17.42;;;;;;;;;;5063100;28;20027;-86
2023/10/15 12:11:44;;;;;;;25.40;18.42;;;;;;;;;;5074165;28;20036;-85
2023/10/15 12:14:11;;;;;;;23.48;18.70;;;;;;;;;;5062170;28;20430;-87
2023/10/15 12:16:41;;;;;;;20.90;18.33;;;;;;;;;;5055385;28;20070;-86
2023/10/15 12:19:11;;;;;;;22.17;19.20;;;;;;;;;;5055564;28;20033;-83
2023/10/15 12:21:37;;;;;;;28.77;18.67;;;;;;;;;;5062066;28;20594;-83
2023/10/15 12:24:03;;;;;;;;;;;;;;;;;;5073289;28;20032;-84
2023/10/15 12:26:30;;;;;;;23.80;17.88;;;;;;;;;;5055629;28;19913;-83
2023/10/15 12:28:56;;;;;;;22.73;16.38;;;;;;;;;;5064661;28;20420;-83
2023/10/15 12:31:23;;;;;;;25.63;18.33;;;;;;;;;;5052812;28;20029;-84
2023/10/15 12:33:49;;;;;;;;;;;;;;;;;;5052702;28;20044;-84
2023/10/15 12:36:15;;;;;;;21.80;16.92;;;;;;;;;;5035463;28;19963;-84
2023/10/15 12:38:43;;;;;;;24.58;17.85;;;;;;;;;;5051962;28;20025;-84
2023/10/15 12:41:10;;;;;;;22.90;16.95;;;;;;;;;;5051451;28;20025;-85
2023/10/15 12:43:37;;;;;;;25.10;17.15;;;;;;;;;;5060882;28;20063;-84
2023/10/15 12:46:03;;;;;;;19.05;15.60;;;;;;;;;;5072727;28;20029;-84
2023/10/15 12:48:30;;;;;;;21.25;16.50;;;;;;;;;;5054410;28;20510;-84
2023/10/15 12:50:57;;;;;;;27.27;18.20;;;;;;;;;;5071242;28;20021;-85
2023/10/15 12:53:24;;;;;;;23.45;18.08;;;;;;;;;;5072210;28;20031;-84
2023/10/15 12:55:51;;;;;;;18.17;15.63;;;;;;;;;;5054665;28;20398;-85
2023/10/15 12:58:17;;;;;;;18.30;15.95;;;;;;;;;;5071027;28;20028;-84
2023/10/15 13:00:43;;;;;;;18.77;14.85;;;;;;;;;;5064388;28;20027;-85
2023/10/15 13:03:10;;;;;;;;;;;;;;;;;;5034563;28;20029;-84
2023/10/15 13:05:36;;;;;;;22.33;15.77;;;;;;;;;;5051291;28;19912;-85
2023/10/15 13:08:03;;;;;;;;;;;;;;;;;;5051333;28;20032;-85
2023/10/15 13:10:29;;;;;;;24.98;15.43;;;;;;;;;;5052243;28;19912;-85
2023/10/15 13:12:55;;;;;;;;;;;;;;;;;;5051390;28;20080;-85
2023/10/15 13:15:22;;;;;;;24.92;16.40;;;;;;;;;;5051522;28;19943;-83
2023/10/15 13:17:50;;;;;;;17.05;15.15;;;;;;;;;;5051491;28;20033;-84
2023/10/15 13:20:17;;;;;;;20.88;18.70;;;;;;;;;;5038629;28;20038;-84
2023/10/15 13:22:44;;;;;;;177.82;137.43;;;;;;;;;;5051668;28;20648;-87
2023/10/15 13:25:11;;;;;;;20.33;16.45;;;;;;;;;;5050211;28;20036;-86
2023/10/15 13:27:38;;;;;;;18.70;16.70;;;;;;;;;;5061399;28;20121;-83
2023/10/15 13:30:04;;;;;;;20.02;14.70;;;;;;;;;;5079498;28;20036;-83
2023/10/15 13:32:31;;;;;;;21.35;14.50;;;;;;;;;;5068430;28;20101;-83
2023/10/15 13:34:57;;;;;;;16.80;14.88;;;;;;;;;;5057333;28;20037;-81
2023/10/15 13:37:23;;;;;;;15.18;13.65;;;;;;;;;;5055661;28;20033;-81
2023/10/15 13:39:52;;;;;;;16.38;14.68;;;;;;;;;;5070351;28;20063;-81
2023/10/15 13:42:18;;;;;;;16.48;13.98;;;;;;;;;;5079959;28;20142;-80
2023/10/15 13:44:44;;;;;;;20.55;13.88;;;;;;;;;;5060960;28;20526;-80
2023/10/15 13:47:11;;;;;;;20.65;14.23;;;;;;;;;;5061806;28;20033;-80
2023/10/15 13:49:37;;;;;;;15.65;12.88;;;;;;;;;;5058116;28;20033;-80
2023/10/15 13:52:04;;;;;;;14.27;12.15;;;;;;;;;;5040996;28;20025;-81
2023/10/15 13:54:30;;;;;;;;;;;;;;;;;;5067811;28;20021;-81
2023/10/15 13:56:57;;;;;;;23.88;11.88;;;;;;;;;;5079372;28;19908;-81
2023/10/15 13:59:27;;;;;;;16.80;12.25;;;;;;;;;;5065151;28;20522;-80
2023/10/15 14:01:53;;;;;;;15.65;11.15;;;;;;;;;;5073680;28;20505;-85
2023/10/15 14:04:19;;;;;;;19.33;12.73;;;;;;;;;;5053491;28;20037;-86
2023/10/15 14:06:45;;;;;;;18.38;12.98;;;;;;;;;;5053663;28;20028;-86
2023/10/15 14:09:14;;;;;;;16.58;12.60;;;;;;;;;;5070341;28;20021;-86
2023/10/15 14:11:42;;;;;;;13.23;11.65;;;;;;;;;;5070333;28;20020;-86
2023/10/15 14:14:09;;;;;;;18.90;11.77;;;;;;;;;;5070723;28;20652;-87
2023/10/15 14:16:35;;;;;;;15.93;10.45;;;;;;;;;;5067707;28;20071;-88
2023/10/15 14:19:01;;;;;;;15.48;10.52;;;;;;;;;;5038069;28;20029;-82
2023/10/15 14:21:27;;;;;;;15.80;10.15;;;;;;;;;;5059980;28;20043;-84
2023/10/15 14:23:53;;;;;;;20.45;12.50;;;;;;;;;;5057936;28;20025;-83
2023/10/15 14:26:21;;;;;;;11.68;9.50;;;;;;;;;;5067825;28;20058;-84
2023/10/15 14:28:48;;;;;;;14.75;9.75;;;;;;;;;;5059637;28;20029;-84
2023/10/15 14:31:16;;;;;;;14.68;9.10;;;;;;;;;;5069797;28;20032;-84
2023/10/15 14:33:42;;;;;;;10.18;7.68;;;;;;;;;;5061364;28;20033;-86
2023/10/15 14:36:09;;;;;;;9.88;7.68;;;;;;;;;;5051291;28;20495;-83
2023/10/15 14:38:35;;;;;;;8.73;7.60;;;;;;;;;;5055930;28;20426;-83
2023/10/15 14:41:02;;;;;;;10.80;8.60;;;;;;;;;;5031581;28;20501;-84
2023/10/15 14:43:29;;;;;;;12.85;8.50;;;;;;;;;;5067820;28;20025;-85
2023/10/15 14:45:56;;;;;;;10.77;7.80;;;;;;;;;;5053658;28;20052;-85
2023/10/15 14:48:25;;;;;;;11.40;7.28;;;;;;;;;;5056576;28;20395;-85